Time;durP1;ratioP1;P1;durP2;ratioP2;P2;SDS_P1;SDS_P2;PMS_P1;PMS_P2;Temp;Humidity;BMP_temperature;BMP_pressure;BME280_temperature;BME280_humidity;BME280_pressure;Samples;Min_cycle;Max_cycle;Signal;HPM_P1;HPM_P2
2022/07/15 00:00:37;;;;;;;7.77;2.00;;;13.80;99.90;;;;;;4993444;28;20471;-56
2022/07/15 00:03:03;;;;;;;4.80;1.63;;;13.90;99.90;;;;;;4992152;28;20620;-56
2022/07/15 00:05:29;;;;;;;9.00;2.50;;;13.90;99.90;;;;;;4991432;28;20203;-56
2022/07/15 00:07:55;;;;;;;7.10;1.40;;;14.00;99.90;;;;;;4991779;28;20447;-58
2022/07/15 00:10:23;;;;;;;12.30;2.40;;;14.10;99.90;;;;;;4993524;28;20252;-58
2022/07/15 00:12:55;;;;;;;11.30;1.83;;;14.20;99.90;;;;;;4992082;28;20467;-57
2022/07/15 00:15:27;;;;;;;11.43;1.47;;;14.20;99.90;;;;;;4992693;28;20471;-58
2022/07/15 00:17:53;;;;;;;5.77;1.90;;;14.10;99.90;;;;;;4991461;28;20447;-58
2022/07/15 00:20:21;;;;;;;5.33;1.57;;;14.10;99.90;;;;;;4992837;28;20865;-58
2022/07/15 00:22:47;;;;;;;6.57;1.70;;;14.10;99.90;;;;;;4992659;28;21131;-57
2022/07/15 00:25:14;;;;;;;10.07;1.63;;;14.10;99.90;;;;;;4993115;28;21300;-57
2022/07/15 00:27:58;;;;;;;2.03;1.20;;;14.10;99.90;;;;;;4993830;28;20788;-57
2022/07/15 00:30:28;;;;;;;12.57;1.93;;;14.10;99.90;;;;;;4991394;28;20453;-56
2022/07/15 00:32:54;;;;;;;4.93;1.60;;;14.00;99.90;;;;;;4992272;28;20478;-58
2022/07/15 00:35:19;;;;;;;9.10;1.90;;;14.00;99.90;;;;;;4993134;28;20443;-57
2022/07/15 00:37:46;;;;;;;7.90;1.93;;;14.10;99.90;;;;;;4991497;28;20191;-58
2022/07/15 00:40:12;;;;;;;13.13;3.00;;;14.10;99.90;;;;;;4991325;28;20255;-57
2022/07/15 00:42:44;;;;;;;7.93;1.47;;;14.20;99.90;;;;;;4992895;28;20458;-58
2022/07/15 00:45:11;;;;;;;7.70;2.07;;;14.20;99.90;;;;;;4992736;28;20475;-58
2022/07/15 00:47:37;;;;;;;6.40;1.63;;;14.20;99.90;;;;;;4991573;28;20455;-58
2022/07/15 00:50:03;;;;;;;5.80;1.60;;;14.10;99.90;;;;;;4991184;28;20443;-60
2022/07/15 00:52:30;;;;;;;9.53;2.13;;;14.00;99.90;;;;;;4990857;28;20670;-57
2022/07/15 00:55:00;;;;;;;6.77;1.93;;;14.00;99.90;;;;;;4991567;28;20188;-58
2022/07/15 00:57:27;;;;;;;7.17;1.80;;;14.00;99.90;;;;;;4992062;28;20447;-58
2022/07/15 00:59:54;;;;;;;7.80;1.50;;;14.10;99.90;;;;;;4993094;28;20458;-58
2022/07/15 01:02:20;;;;;;;12.80;2.33;;;14.10;99.90;;;;;;4991865;28;20486;-58
2022/07/15 01:04:47;;;;;;;7.23;1.67;;;14.00;99.90;;;;;;4990716;28;20442;-58
2022/07/15 01:07:13;;;;;;;7.20;1.93;;;14.00;99.90;;;;;;4990241;28;20916;-58
2022/07/15 01:09:39;;;;;;;11.90;3.30;;;14.00;99.90;;;;;;4992970;28;20443;-57
2022/07/15 01:12:05;;;;;;;7.33;1.90;;;14.00;99.90;;;;;;4991001;28;20470;-57
2022/07/15 01:14:31;;;;;;;10.03;1.70;;;14.00;99.90;;;;;;4992353;28;20192;-57
2022/07/15 01:16:56;;;;;;;5.73;1.57;;;14.00;99.90;;;;;;4991230;28;20454;-57
2022/07/15 01:19:22;;;;;;;8.30;1.70;;;14.10;99.90;;;;;;4990742;28;20192;-57
2022/07/15 01:21:48;;;;;;;9.07;2.00;;;14.10;99.90;;;;;;4992958;28;20855;-57
2022/07/15 01:24:13;;;;;;;4.70;1.30;;;14.10;99.90;;;;;;4983568;28;20276;-57
2022/07/15 01:26:39;;;;;;;6.17;1.50;;;14.10;99.90;;;;;;4981489;28;20243;-57
2022/07/15 01:29:04;;;;;;;5.77;1.80;;;14.00;99.90;;;;;;4990827;28;20222;-58
2022/07/15 01:31:30;;;;;;;6.13;1.73;;;14.00;99.90;;;;;;4992029;28;20200;-56
2022/07/15 01:33:55;;;;;;;3.50;1.20;;;13.90;99.90;;;;;;4991241;28;20200;-56
2022/07/15 01:36:21;;;;;;;7.13;1.80;;;13.90;99.90;;;;;;4990851;28;20192;-57
2022/07/15 01:38:47;;;;;;;6.97;1.67;;;13.90;99.90;;;;;;4989397;28;20223;-58
2022/07/15 01:41:13;;;;;;;4.17;1.33;;;14.00;99.90;;;;;;4991596;28;20220;-57
2022/07/15 01:43:39;;;;;;;6.30;1.60;;;14.10;99.90;;;;;;4990933;28;20851;-57
2022/07/15 01:46:05;;;;;;;6.60;1.60;;;14.20;99.90;;;;;;4991814;28;20650;-57
2022/07/15 01:51:15;;;;;;;5.60;1.40;;;14.20;99.90;;;;;;4990106;28;20697;-57
2022/07/15 01:53:41;;;;;;;7.83;1.90;;;14.30;99.90;;;;;;4990009;28;20483;-58
2022/07/15 01:56:06;;;;;;;5.40;1.63;;;14.30;99.90;;;;;;4991783;28;20205;-57
2022/07/15 01:58:32;;;;;;;10.07;1.67;;;14.40;99.90;;;;;;4991025;28;20257;-57
2022/07/15 02:00:58;;;;;;;6.47;1.50;;;14.40;99.90;;;;;;4990744;28;20439;-57
2022/07/15 02:03:23;;;;;;;3.93;1.70;;;14.50;99.90;;;;;;4984901;28;20233;-57
2022/07/15 02:05:49;;;;;;;9.97;1.80;;;14.40;99.90;;;;;;4990930;28;20184;-58
2022/07/15 02:08:15;;;;;;;6.67;1.47;;;14.30;99.90;;;;;;4989065;28;20565;-57
2022/07/15 02:10:40;;;;;;;3.00;1.33;;;14.30;99.90;;;;;;4989305;28;20636;-57
2022/07/15 02:13:11;;;;;;;6.97;1.33;;;14.20;99.90;;;;;;4990622;28;20231;-57
2022/07/15 02:15:37;;;;;;;5.53;1.30;;;14.00;99.90;;;;;;4992480;28;20272;-57
2022/07/15 02:18:03;;;;;;;7.60;1.50;;;13.80;99.90;;;;;;4991540;28;20933;-57
2022/07/15 02:20:30;;;;;;;4.30;1.20;;;13.70;99.90;;;;;;4989098;28;20542;-57
2022/07/15 02:22:59;;;;;;;2.57;1.40;;;13.70;99.90;;;;;;4991703;28;20513;-57
2022/07/15 02:25:26;;;;;;;12.10;1.43;;;13.70;99.90;;;;;;4991904;28;20442;-57
2022/07/15 02:27:57;;;;;;;3.73;1.33;;;13.70;99.90;;;;;;4991677;28;20443;-57
2022/07/15 02:30:27;;;;;;;6.90;1.50;;;13.60;99.90;;;;;;4985155;28;20444;-57
2022/07/15 02:32:53;;;;;;;5.80;1.77;;;13.70;99.90;;;;;;4989353;28;20563;-57
2022/07/15 02:35:19;;;;;;;7.67;1.50;;;13.70;99.90;;;;;;4991455;28;20452;-57
2022/07/15 02:37:46;;;;;;;5.80;1.70;;;13.60;99.90;;;;;;4990202;28;20184;-57
2022/07/15 02:40:12;;;;;;;2.60;1.30;;;13.50;99.90;;;;;;4989214;28;20930;-56
2022/07/15 02:42:37;;;;;;;4.27;1.10;;;13.60;99.90;;;;;;4991394;28;20534;-57
2022/07/15 02:45:03;;;;;;;7.83;1.60;;;13.80;99.90;;;;;;4991508;28;20520;-65
2022/07/15 02:47:29;;;;;;;5.37;1.30;;;13.90;99.90;;;;;;4990166;28;20188;-57
2022/07/15 02:49:55;;;;;;;3.13;1.33;;;13.90;99.90;;;;;;4990606;28;20443;-56
2022/07/15 02:52:21;;;;;;;3.60;1.20;;;13.80;99.90;;;;;;4991216;28;20735;-57
2022/07/15 02:54:46;;;;;;;3.90;1.30;;;13.80;99.90;;;;;;4990965;28;20242;-56
2022/07/15 02:57:13;;;;;;;5.07;1.17;;;13.90;99.90;;;;;;4990424;28;20526;-57
2022/07/15 02:59:38;;;;;;;6.20;1.40;;;13.90;99.90;;;;;;4983733;28;20626;-57
2022/07/15 03:02:04;;;;;;;7.40;1.30;;;13.90;99.90;;;;;;4990765;28;20457;-57
2022/07/15 03:04:30;;;;;;;3.37;1.20;;;14.00;99.90;;;;;;4991233;28;20196;-57
2022/07/15 03:06:55;;;;;;;3.97;1.20;;;14.10;99.90;;;;;;4989146;28;20587;-57
2022/07/15 03:09:21;;;;;;;4.60;1.20;;;14.20;99.90;;;;;;4989418;28;20219;-57
2022/07/15 03:11:47;;;;;;;7.13;1.10;;;14.20;99.90;;;;;;4990124;28;20212;-57
2022/07/15 03:14:12;;;;;;;6.10;1.30;;;14.20;99.90;;;;;;4990914;28;20199;-54
2022/07/15 03:16:38;;;;;;;3.43;1.20;;;14.10;99.90;;;;;;4989225;28;20195;-57
2022/07/15 03:19:03;;;;;;;7.50;1.30;;;14.00;99.90;;;;;;4991031;28;20972;-57
2022/07/15 03:21:29;;;;;;;5.13;1.57;;;13.90;99.90;;;;;;4989743;28;20243;-57
2022/07/15 03:23:55;;;;;;;4.60;1.63;;;14.00;99.90;;;;;;4990514;28;20191;-63
2022/07/15 03:26:20;;;;;;;5.40;1.43;;;14.10;99.90;;;;;;4988728;28;20195;-57
2022/07/15 03:28:46;;;;;;;4.93;1.57;;;14.10;99.90;;;;;;4990485;28;20188;-57
2022/07/15 03:31:12;;;;;;;10.47;1.70;;;14.20;99.90;;;;;;4986486;28;20196;-56
2022/07/15 03:33:38;;;;;;;4.20;1.23;;;14.20;99.90;;;;;;4991130;28;20798;-56
2022/07/15 03:36:05;;;;;;;3.40;1.50;;;14.10;99.90;;;;;;4990275;28;20281;-58
2022/07/15 03:38:31;;;;;;;8.50;1.20;;;14.00;99.90;;;;;;4989775;28;20194;-57
2022/07/15 03:40:57;;;;;;;6.23;1.60;;;14.00;99.90;;;;;;4991244;28;20479;-57
2022/07/15 03:43:26;;;;;;;3.93;1.17;;;13.90;99.90;;;;;;4995004;28;20184;-57
2022/07/15 03:45:52;;;;;;;6.90;1.10;;;13.80;99.90;;;;;;4994056;28;20192;-57
2022/07/15 03:48:18;;;;;;;3.10;1.17;;;13.80;99.90;;;;;;4993749;28;20446;-57
2022/07/15 03:50:44;;;;;;;4.83;1.20;;;13.80;99.90;;;;;;4993515;28;20502;-57
2022/07/15 03:53:10;;;;;;;3.73;1.20;;;13.80;99.90;;;;;;4991908;28;20208;-57
2022/07/15 03:55:37;;;;;;;4.00;1.80;;;13.80;99.90;;;;;;4994170;28;20478;-57
2022/07/15 03:58:03;;;;;;;4.13;1.50;;;13.70;99.90;;;;;;4991080;28;20447;-57
2022/07/15 04:00:29;;;;;;;3.30;1.10;;;13.70;99.90;;;;;;4993780;28;20921;-57
2022/07/15 04:02:55;;;;;;;6.23;1.33;;;13.70;99.90;;;;;;4981737;28;20448;-56
2022/07/15 04:05:21;;;;;;;5.70;1.40;;;13.80;99.90;;;;;;4994353;28;20199;-57
2022/07/15 04:07:47;;;;;;;3.73;1.50;;;13.70;99.90;;;;;;4990823;28;20440;-56
2022/07/15 04:10:13;;;;;;;4.60;1.00;;;13.70;99.90;;;;;;4992406;28;20195;-56
2022/07/15 04:12:39;;;;;;;3.37;1.07;;;13.70;99.90;;;;;;4993445;28;20872;-57
2022/07/15 04:15:05;;;;;;;2.77;1.10;;;13.70;99.90;;;;;;4992686;28;20440;-58
2022/07/15 04:17:31;;;;;;;3.77;1.40;;;13.80;99.90;;;;;;4992509;28;20188;-57
2022/07/15 04:19:57;;;;;;;2.90;1.30;;;13.80;99.90;;;;;;4992492;28;20548;-57
2022/07/15 04:22:22;;;;;;;5.83;1.50;;;14.00;99.90;;;;;;4992805;28;20258;-57
2022/07/15 04:24:48;;;;;;;4.20;1.50;;;14.20;99.90;;;;;;4993018;28;20207;-57
2022/07/15 04:27:14;;;;;;;4.60;1.43;;;14.30;99.90;;;;;;4992343;28;20192;-57
2022/07/15 04:29:40;;;;;;;3.40;1.20;;;14.40;99.90;;;;;;4992153;28;20238;-57
2022/07/15 04:32:06;;;;;;;2.87;1.17;;;14.50;99.90;;;;;;4991302;28;20534;-56
2022/07/15 04:34:32;;;;;;;3.83;1.30;;;14.50;99.90;;;;;;4993470;28;20475;-57
2022/07/15 04:36:57;;;;;;;6.60;1.70;;;14.60;99.90;;;;;;4992830;28;20207;-56
2022/07/15 04:39:23;;;;;;;10.57;1.80;;;14.50;99.90;;;;;;4993469;28;20716;-57
2022/07/15 04:41:51;;;;;;;12.27;2.10;;;14.60;99.90;;;;;;4993323;28;20177;-57
2022/07/15 04:44:17;;;;;;;7.90;2.20;;;14.60;99.90;;;;;;4991915;28;20200;-56
2022/07/15 04:46:43;;;;;;;3.23;1.40;;;14.60;99.90;;;;;;4990404;28;20470;-57
2022/07/15 04:51:53;;;;;;;9.73;2.10;;;14.60;99.90;;;;;;4993428;28;20290;-54
2022/07/15 04:54:18;;;;;;;5.73;2.37;;;14.50;99.90;;;;;;4992408;28;20443;-57
2022/07/15 04:56:44;;;;;;;4.60;2.17;;;14.40;99.90;;;;;;4992131;28;20241;-57
2022/07/15 04:59:09;;;;;;;10.90;2.20;;;14.40;99.90;;;;;;4992156;28;20891;-56
2022/07/15 05:01:35;;;;;;;13.03;2.40;;;14.50;99.90;;;;;;4991022;28;20203;-57
2022/07/15 05:04:01;;;;;;;5.17;1.90;;;14.60;99.90;;;;;;4993403;28;20628;-57
2022/07/15 05:06:27;;;;;;;3.50;1.73;;;14.70;99.90;;;;;;4992225;28;20984;-57
2022/07/15 05:08:52;;;;;;;4.83;1.27;;;14.70;99.90;;;;;;4991206;28;20443;-57
2022/07/15 05:11:18;;;;;;;10.03;1.90;;;14.70;99.90;;;;;;4992536;28;20545;-57
2022/07/15 05:13:44;;;;;;;6.40;1.90;;;14.70;99.90;;;;;;4992965;28;20287;-56
2022/07/15 05:16:10;;;;;;;6.30;1.67;;;14.60;99.90;;;;;;4990747;28;20443;-57
2022/07/15 05:18:36;;;;;;;4.77;1.50;;;14.70;99.90;;;;;;4990554;28;20188;-57
2022/07/15 05:21:03;;;;;;;7.80;1.70;;;14.60;99.90;;;;;;4992676;28;20266;-57
2022/07/15 05:23:28;;;;;;;9.23;2.37;;;14.60;99.90;;;;;;4992033;28;20470;-58
2022/07/15 05:25:54;;;;;;;9.40;1.80;;;14.50;99.90;;;;;;4990214;28;20451;-57
2022/07/15 05:28:20;;;;;;;8.30;1.83;;;14.50;99.90;;;;;;4992027;28;20195;-57
2022/07/15 05:30:46;;;;;;;6.33;1.70;;;14.50;99.90;;;;;;4991049;28;20192;-57
2022/07/15 05:33:13;;;;;;;13.00;2.10;;;14.50;99.90;;;;;;4990488;28;20302;-57
2022/07/15 05:35:39;;;;;;;11.20;1.90;;;14.40;99.90;;;;;;4990782;28;20227;-57
2022/07/15 05:38:04;;;;;;;15.03;1.50;;;14.40;99.90;;;;;;4992392;28;20459;-57
2022/07/15 05:40:30;;;;;;;8.40;1.93;;;14.40;99.90;;;;;;4991276;28;20708;-57
2022/07/15 05:42:56;;;;;;;9.87;1.73;;;14.30;99.90;;;;;;4991885;28;20331;-57
2022/07/15 05:45:21;;;;;;;6.20;2.00;;;14.30;99.90;;;;;;4991231;28;20200;-57
2022/07/15 05:47:49;;;;;;;4.67;1.83;;;14.20;99.90;;;;;;4991500;28;20195;-58
2022/07/15 05:50:15;;;;;;;4.33;1.37;;;14.20;99.90;;;;;;4986778;28;20251;-57
2022/07/15 05:52:41;;;;;;;4.93;1.50;;;14.20;99.90;;;;;;4990606;28;20475;-57
2022/07/15 05:55:07;;;;;;;5.03;1.40;;;14.30;99.90;;;;;;4990182;28;20448;-57
2022/07/15 05:57:33;;;;;;;7.67;1.60;;;14.50;99.90;;;;;;4989401;28;20235;-61
2022/07/15 05:59:58;;;;;;;2.93;1.33;;;14.80;99.90;;;;;;4989554;28;20534;-57
2022/07/15 06:02:24;;;;;;;3.20;1.50;;;14.80;99.90;;;;;;4991490;28;20196;-57
2022/07/15 06:04:50;;;;;;;3.30;1.30;;;15.00;99.90;;;;;;4990273;28;20196;-57
2022/07/15 06:07:15;;;;;;;3.73;1.30;;;15.10;99.90;;;;;;4990480;28;20558;-57
2022/07/15 06:09:41;;;;;;;6.27;1.40;;;15.30;99.90;;;;;;4990526;28;20196;-54
2022/07/15 06:12:07;;;;;;;4.60;1.40;;;15.40;99.90;;;;;;4990430;28;20256;-57
2022/07/15 06:14:32;;;;;;;6.53;1.70;;;15.50;99.90;;;;;;4991435;28;20191;-57
2022/07/15 06:16:58;;;;;;;5.83;1.50;;;15.70;99.90;;;;;;4991686;28;20526;-57
2022/07/15 06:19:24;;;;;;;3.63;1.37;;;15.80;99.90;;;;;;4989127;28;20745;-59
2022/07/15 06:21:49;;;;;;;6.83;1.40;;;15.80;99.90;;;;;;4991051;28;20439;-53
2022/07/15 06:24:16;;;;;;;5.20;1.47;;;15.80;99.90;;;;;;4989015;28;20192;-57
2022/07/15 06:26:41;;;;;;;9.00;1.70;;;15.90;99.90;;;;;;4987741;28;20802;-57
2022/07/15 06:29:07;;;;;;;6.60;1.53;;;16.00;99.90;;;;;;4986631;28;20444;-57
2022/07/15 06:31:33;;;;;;;3.80;1.50;;;16.00;99.90;;;;;;4991600;28;20264;-57
2022/07/15 06:33:59;;;;;;;8.00;1.83;;;16.00;99.90;;;;;;4987270;28;21068;-57
2022/07/15 06:36:25;;;;;;;5.43;1.80;;;16.20;99.90;;;;;;4987257;28;20188;-57
2022/07/15 06:38:51;;;;;;;3.90;1.20;;;16.20;99.90;;;;;;4988066;28;20188;-56
2022/07/15 06:41:16;;;;;;;12.63;1.60;;;16.30;99.90;;;;;;4991804;28;20858;-57
2022/07/15 06:43:44;;;;;;;8.87;1.60;;;16.20;99.90;;;;;;4986490;28;20220;-57
2022/07/15 06:46:10;;;;;;;8.40;1.67;;;16.10;99.90;;;;;;4988445;28;20272;-57
2022/07/15 06:48:38;;;;;;;13.23;2.60;;;16.00;99.90;;;;;;4990852;28;20890;-64
2022/07/15 06:51:04;;;;;;;4.03;1.67;;;15.90;99.90;;;;;;4990218;28;20440;-57
2022/07/15 06:53:30;;;;;;;13.40;1.43;;;15.60;99.90;;;;;;4992205;28;20441;-57
2022/07/15 06:55:55;;;;;;;3.30;1.20;;;15.40;99.90;;;;;;4986001;28;20188;-57
2022/07/15 06:58:21;;;;;;;7.10;1.67;;;15.40;99.90;;;;;;4989763;28;20204;-57
2022/07/15 07:00:47;;;;;;;13.10;1.50;;;15.40;99.90;;;;;;4984251;28;20612;-57
2022/07/15 07:03:13;;;;;;;4.23;1.47;;;15.50;99.90;;;;;;4988367;28;20457;-57
2022/07/15 07:05:38;;;;;;;3.13;1.50;;;15.60;99.90;;;;;;4983658;28;20189;-57
2022/07/15 07:08:04;;;;;;;6.23;1.47;;;15.60;99.90;;;;;;4991367;28;20263;-57
2022/07/15 07:10:30;;;;;;;6.80;1.57;;;15.60;99.90;;;;;;4990711;28;20522;-57
2022/07/15 07:12:55;;;;;;;9.67;2.00;;;15.60;99.90;;;;;;4973119;28;20212;-57
2022/07/15 07:15:23;;;;;;;8.53;1.20;;;15.50;99.90;;;;;;4976873;28;20222;-57
2022/07/15 07:17:51;;;;;;;4.67;1.50;;;15.50;99.90;;;;;;4995404;28;20172;-57
2022/07/15 07:20:16;;;;;;;7.80;2.10;;;15.50;99.90;;;;;;4995744;28;20783;-57
2022/07/15 07:22:42;;;;;;;6.00;1.93;;;15.40;99.90;;;;;;4996415;28;20415;-55
2022/07/15 07:25:08;;;;;;;7.17;1.60;;;15.30;99.90;;;;;;4992174;28;20197;-57
2022/07/15 07:27:34;;;;;;;4.57;1.33;;;15.30;99.90;;;;;;4975997;28;20185;-56
2022/07/15 07:30:01;;;;;;;3.47;1.40;;;15.30;99.90;;;;;;4976310;28;20424;-56
2022/07/15 07:32:27;;;;;;;10.40;1.90;;;15.40;99.90;;;;;;4976300;28;20212;-57
2022/07/15 07:34:53;;;;;;;10.97;2.20;;;15.70;99.90;;;;;;4975628;28;20424;-57
2022/07/15 07:37:19;;;;;;;6.87;1.50;;;16.20;99.90;;;;;;4975610;28;20416;-57
2022/07/15 07:39:44;;;;;;;3.60;1.20;;;16.60;99.90;;;;;;4977280;28;20279;-57
2022/07/15 07:42:10;;;;;;;5.63;1.40;;;17.00;99.90;;;;;;4975522;28;20780;-57
2022/07/15 07:44:36;;;;;;;7.40;1.87;;;17.20;99.90;;;;;;4975026;28;20177;-57
2022/07/15 07:47:02;;;;;;;3.27;1.27;;;17.40;99.90;;;;;;4977395;28;20196;-57
2022/07/15 07:49:28;;;;;;;4.57;1.30;;;17.50;99.90;;;;;;4978171;28;20335;-53
2022/07/15 07:51:53;;;;;;;8.00;1.83;;;17.50;99.90;;;;;;4979435;28;20554;-53
2022/07/15 07:54:19;;;;;;;9.97;1.53;;;17.50;99.90;;;;;;4975873;28;20174;-52
2022/07/15 07:56:45;;;;;;;6.50;1.57;;;17.40;99.90;;;;;;4976965;28;20170;-53
2022/07/15 07:59:11;;;;;;;3.70;1.30;;;17.10;99.90;;;;;;4976559;28;20623;-53
2022/07/15 08:01:37;;;;;;;3.90;1.20;;;16.80;99.90;;;;;;4977759;28;20196;-53
2022/07/15 08:04:02;;;;;;;8.93;1.63;;;16.40;99.90;;;;;;4977395;28;20421;-52
2022/07/15 08:06:28;;;;;;;9.27;1.50;;;16.20;99.90;;;;;;4976420;28;20192;-53
2022/07/15 08:08:53;;;;;;;4.70;1.40;;;15.90;99.90;;;;;;4982011;28;20187;-53
2022/07/15 08:11:22;;;;;;;5.93;1.33;;;15.80;99.90;;;;;;4995821;28;20562;-53
2022/07/15 08:13:48;;;;;;;5.13;1.40;;;15.70;99.90;;;;;;4983516;28;20291;-52
2022/07/15 08:16:13;;;;;;;4.40;1.10;;;15.50;99.90;;;;;;4976207;28;20475;-53
2022/07/15 08:18:39;;;;;;;3.37;1.00;;;15.10;99.90;;;;;;4975970;28;20248;-53
2022/07/15 08:21:05;;;;;;;7.97;1.70;;;14.90;99.90;;;;;;4976040;28;20617;-53
2022/07/15 08:23:32;;;;;;;8.50;1.70;;;14.80;99.90;;;;;;4975412;28;20169;-53
2022/07/15 08:25:58;;;;;;;2.30;1.37;;;14.80;99.90;;;;;;4976265;28;20630;-53
2022/07/15 08:28:24;;;;;;;7.30;1.80;;;15.00;99.90;;;;;;4977195;28;20491;-53
2022/07/15 08:30:50;;;;;;;3.90;1.60;;;15.20;99.90;;;;;;4975868;28;20420;-53
2022/07/15 08:33:16;;;;;;;7.87;1.33;;;15.60;99.90;;;;;;4976386;28;20825;-53
2022/07/15 08:35:43;;;;;;;4.83;1.17;;;16.20;99.90;;;;;;4976874;28;20177;-53
2022/07/15 08:38:10;;;;;;;4.87;1.43;;;16.80;99.90;;;;;;4976091;28;20420;-53
2022/07/15 08:40:37;;;;;;;5.00;1.23;;;17.40;99.90;;;;;;4976314;28;20464;-53
2022/07/15 08:43:07;;;;;;;4.20;1.33;;;18.00;99.90;;;;;;4976076;28;21316;-58
2022/07/15 08:45:38;;;;;;;3.53;1.07;;;18.80;99.90;;;;;;4975245;28;20439;-53
2022/07/15 08:48:05;;;;;;;3.90;1.03;;;19.50;99.90;;;;;;4975906;28;20515;-53
2022/07/15 08:50:32;;;;;;;2.77;1.00;;;20.00;99.90;;;;;;4975703;28;20443;-53
2022/07/15 08:52:58;;;;;;;5.07;1.20;;;19.90;99.90;;;;;;4975436;28;21005;-53
2022/07/15 08:55:24;;;;;;;4.50;1.00;;;19.20;99.90;;;;;;4975173;28;20508;-52
2022/07/15 08:57:52;;;;;;;4.17;1.10;;;19.30;99.90;;;;;;4974998;28;20405;-53
2022/07/15 09:00:23;;;;;;;4.30;1.20;;;20.00;99.90;;;;;;4975668;28;21113;-53
2022/07/15 09:02:49;;;;;;;2.77;0.80;;;20.40;99.90;;;;;;4988604;28;20522;-53
2022/07/15 09:05:28;;;;;;;1.93;0.90;;;20.10;99.90;;;;;;4994083;28;20506;-58
2022/07/15 09:08:15;;;;;;;4.67;1.23;;;20.00;99.90;;;;;;4994189;28;20268;-53
2022/07/15 09:10:42;;;;;;;1.33;0.80;;;19.60;99.90;;;;;;4994396;28;20408;-53
2022/07/15 09:13:10;;;;;;;6.10;1.30;;;18.90;99.90;;;;;;4995053;28;20452;-52
2022/07/15 09:15:38;;;;;;;4.50;1.20;;;18.30;99.90;;;;;;4994059;28;20415;-51
2022/07/15 09:18:07;;;;;;;3.13;0.90;;;17.70;99.90;;;;;;4995111;28;20404;-51
2022/07/15 09:20:33;;;;;;;2.30;1.00;;;17.50;99.90;;;;;;4994385;28;20408;-51
2022/07/15 09:22:59;;;;;;;3.33;0.93;;;17.80;99.90;;;;;;4994563;28;20423;-51
2022/07/15 09:25:27;;;;;;;1.70;0.87;;;18.40;99.90;;;;;;4994181;28;20510;-51
2022/07/15 09:27:53;;;;;;;3.30;1.20;;;18.90;99.90;;;;;;4980627;28;20925;-52
2022/07/15 09:33:43;;;;;;;8.80;1.00;;;19.30;99.90;;;;;;4995776;28;20486;-52
2022/07/15 09:36:20;;;;;;;4.70;1.10;;;19.40;99.90;;;;;;4994787;28;20408;-52
2022/07/15 09:38:56;;;;;;;3.07;1.00;;;19.50;99.90;;;;;;4993352;28;20881;-52
2022/07/15 09:41:48;;;;;;;7.33;0.90;;;19.60;99.90;;;;;;4993391;28;20422;-52
2022/07/15 09:44:17;;;;;;;3.73;1.43;;;20.50;99.90;;;;;;4990191;28;20910;-53
2022/07/15 09:46:59;;;;;;;2.00;0.80;;;21.60;99.90;;;;;;4993623;28;20902;-52
2022/07/15 09:49:25;;;;;;;3.47;1.10;;;22.10;99.90;;;;;;4994051;28;20429;-52
2022/07/15 09:52:01;;;;;;;5.50;1.60;;;21.90;99.90;;;;;;4992429;28;20553;-52
2022/07/15 09:54:30;;;;;;;3.97;1.00;;;21.10;99.90;;;;;;4992028;28;20204;-52
2022/07/15 09:56:58;;;;;;;5.07;0.97;;;20.60;99.90;;;;;;4993164;28;20470;-54
2022/07/15 09:59:24;;;;;;;3.07;0.90;;;20.80;99.90;;;;;;4993356;28;20462;-59
2022/07/15 10:01:51;;;;;;;2.87;0.97;;;21.20;99.90;;;;;;4993604;28;20859;-52
2022/07/15 10:04:22;;;;;;;4.80;1.10;;;21.20;99.90;;;;;;4992045;28;20438;-52
2022/07/15 10:06:50;;;;;;;2.80;0.70;;;21.30;99.90;;;;;;4993213;28;20486;-52
2022/07/15 10:09:24;;;;;;;2.97;1.07;;;22.00;99.90;;;;;;4994245;28;20850;-52
2022/07/15 10:11:53;;;;;;;4.50;1.37;;;22.70;99.90;;;;;;4993644;28;20466;-52
2022/07/15 10:14:56;;;;;;;4.30;0.90;;;23.10;99.90;;;;;;4993877;28;20927;-56
2022/07/15 10:17:33;;;;;;;2.73;0.90;;;23.40;99.90;;;;;;4993400;28;20447;-56
2022/07/15 10:20:16;;;;;;;2.30;1.00;;;23.20;99.90;;;;;;4993255;28;20423;-56
2022/07/15 10:23:04;;;;;;;5.07;1.10;;;22.70;99.90;;;;;;4993212;28;20430;-56
2022/07/15 10:25:47;;;;;;;1.93;0.93;;;21.80;99.90;;;;;;4992140;28;20435;-57
2022/07/15 10:28:17;;;;;;;1.93;1.03;;;21.00;99.90;;;;;;4992664;28;20870;-64
2022/07/15 10:30:43;;;;;;;2.60;0.90;;;21.60;99.90;;;;;;4994643;28;20415;-58
2022/07/15 10:33:13;;;;;;;2.40;0.80;;;21.80;99.90;;;;;;4993960;28;20486;-57
2022/07/15 10:35:50;;;;;;;4.77;1.20;;;22.40;99.90;;;;;;4993382;28;20788;-56
2022/07/15 10:38:29;;;;;;;1.20;0.80;;;23.10;99.90;;;;;;4993295;28;20445;-58
2022/07/15 10:41:14;;;;;;;3.20;0.80;;;23.30;99.90;;;;;;4993668;28;21114;-57
2022/07/15 10:43:53;;;;;;;1.83;0.83;;;23.80;99.90;;;;;;4994163;28;20518;-57
2022/07/15 10:46:23;;;;;;;5.53;1.00;;;24.40;99.90;;;;;;4993421;28;20498;-57
2022/07/15 10:48:58;;;;;;;8.27;0.90;;;24.10;99.90;;;;;;4993723;28;20412;-56
2022/07/15 10:51:35;;;;;;;2.43;0.80;;;23.10;99.90;;;;;;4993547;28;20415;-64
2022/07/15 10:54:09;;;;;;;1.50;0.70;;;22.80;99.90;;;;;;4993331;28;20469;-56
2022/07/15 10:56:36;;;;;;;5.73;1.57;;;22.90;99.90;;;;;;4992929;28;20416;-57
2022/07/15 10:59:11;;;;;;;4.20;0.70;;;22.40;99.90;;;;;;4992621;28;20905;-56
2022/07/15 11:01:41;;;;;;;4.40;1.00;;;22.50;99.90;;;;;;4993218;28;20411;-57
2022/07/15 11:04:14;;;;;;;2.60;0.60;;;22.90;99.90;;;;;;4989992;28;20436;-57
2022/07/15 11:07:02;;;;;;;1.67;0.67;;;23.60;99.90;;;;;;4993539;28;20520;-57
2022/07/15 11:09:47;;;;;;;1.00;0.83;;;23.60;99.90;;;;;;4992597;28;20439;-61
2022/07/15 11:12:15;;;;;;;2.73;0.90;;;22.90;99.90;;;;;;4992929;28;20463;-56
2022/07/15 11:14:54;;;;;;;2.23;0.80;;;22.60;99.90;;;;;;4988844;28;20448;-57
2022/07/15 11:17:28;;;;;;;4.13;0.70;;;22.60;99.90;;;;;;4973617;28;20878;-56
2022/07/15 11:19:58;;;;;;;1.43;0.80;;;22.20;99.90;;;;;;4973533;28;20412;-57
2022/07/15 11:22:27;;;;;;;2.57;0.87;;;21.50;99.90;;;;;;4975747;28;20519;-56
2022/07/15 11:24:53;;;;;;;1.93;0.73;;;20.90;99.90;;;;;;4973185;28;20408;-57
2022/07/15 11:27:20;;;;;;;5.77;1.00;;;20.60;99.90;;;;;;4972820;28;20409;-56
2022/07/15 11:29:52;;;;;;;5.47;0.90;;;20.20;99.90;;;;;;4978055;28;20442;-56
2022/07/15 11:32:21;;;;;;;2.30;0.93;;;20.50;99.90;;;;;;4991607;28;20949;-58
2022/07/15 11:34:53;;;;;;;4.33;1.10;;;20.80;99.90;;;;;;4992707;28;20925;-55
2022/07/15 11:37:24;;;;;;;4.13;1.23;;;20.80;99.90;;;;;;4992196;28;20916;-57
2022/07/15 11:40:03;;;;;;;3.23;1.50;;;20.90;99.90;;;;;;4991714;28;20474;-57
2022/07/15 11:45:30;;;;;;;1.43;0.70;;;20.00;99.90;;;;;;4992468;28;20431;-57
2022/07/15 11:47:55;;;;;;;1.77;0.80;;;19.70;99.90;;;;;;4991536;28;20506;-57
2022/07/15 11:50:21;;;;;;;3.57;1.67;;;19.40;99.90;;;;;;4992568;28;20864;-57
2022/07/15 11:52:48;;;;;;;5.80;1.10;;;19.30;99.90;;;;;;4992281;28;20216;-57
2022/07/15 11:55:13;;;;;;;5.33;1.10;;;19.40;99.90;;;;;;4990586;28;20259;-59
2022/07/15 11:57:46;;;;;;;3.90;0.90;;;19.40;99.90;;;;;;4992520;28;20478;-57
2022/07/15 12:00:12;;;;;;;4.33;0.97;;;19.40;99.90;;;;;;4992240;28;20231;-56
2022/07/15 12:02:38;;;;;;;6.90;1.20;;;19.30;99.90;;;;;;4994939;28;20434;-57
2022/07/15 12:05:06;;;;;;;3.03;1.00;;;19.10;99.90;;;;;;4997165;28;20427;-56
2022/07/15 12:07:48;;;;;;;1.87;1.00;;;19.10;99.90;;;;;;4997183;28;20168;-57
2022/07/15 12:10:14;;;;;;;6.40;1.20;;;19.00;99.90;;;;;;4997302;28;20417;-57
2022/07/15 12:12:56;;;;;;;3.70;1.40;;;19.20;99.90;;;;;;4995599;28;20455;-57
2022/07/15 12:15:22;;;;;;;4.70;1.00;;;19.50;99.90;;;;;;4994571;28;20423;-57
2022/07/15 12:17:48;;;;;;;7.10;1.00;;;19.70;99.90;;;;;;4995597;28;20396;-57
2022/07/15 12:20:14;;;;;;;6.83;1.23;;;19.70;99.90;;;;;;4995539;28;20455;-57
2022/07/15 12:23:02;;;;;;;3.17;1.10;;;19.60;99.90;;;;;;4987960;28;20486;-57
2022/07/15 12:25:28;;;;;;;1.33;0.80;;;20.70;99.90;;;;;;4975280;28;20169;-56
2022/07/15 12:27:54;;;;;;;8.07;1.40;;;21.50;99.90;;;;;;4986707;28;20450;-57
2022/07/15 12:30:37;;;;;;;2.00;1.00;;;21.50;99.90;;;;;;4991780;28;20284;-57
2022/07/15 12:33:22;;;;;;;5.43;1.13;;;21.00;99.90;;;;;;4991262;28;20684;-57
2022/07/15 12:35:49;;;;;;;3.83;1.00;;;20.70;99.90;;;;;;4993457;28;20439;-57
2022/07/15 12:38:29;;;;;;;3.87;1.00;;;20.70;99.90;;;;;;4992075;28;20461;-57
2022/07/15 12:41:05;;;;;;;4.00;1.00;;;20.60;99.90;;;;;;4988598;28;20515;-63
2022/07/15 12:43:57;;;;;;;2.87;0.90;;;21.00;99.90;;;;;;4984760;28;20450;-57
2022/07/15 12:46:56;;;;;;;3.03;0.90;;;22.00;99.90;;;;;;4985693;28;20444;-58
2022/07/15 12:49:42;;;;;;;2.17;0.80;;;23.20;99.90;;;;;;4986652;28;20580;-57
2022/07/15 12:52:22;;;;;;;3.00;1.00;;;23.90;99.90;;;;;;4991083;28;20499;-57
2022/07/15 12:54:49;;;;;;;1.43;0.80;;;24.00;99.90;;;;;;4985958;28;20435;-57
2022/07/15 12:57:36;;;;;;;3.07;0.80;;;24.00;99.90;;;;;;4987553;28;20446;-57
2022/07/15 13:00:07;;;;;;;3.70;1.00;;;23.80;99.90;;;;;;4994053;28;20404;-57
2022/07/15 13:03:01;;;;;;;7.53;1.10;;;23.00;99.90;;;;;;4989486;28;20447;-57